Decoded Metar for LEJR (JEREZ in SPAIN) (IATA:XRY) | Meteo·Mobile Aviation Weather
aviador You're here:

LEJR Decoded Metar

JEREZ in SPAIN
Report Time2018-09-19 22:00:00
UTC Time2018-09-19 22:09:44
Flight Rules vfr VFR
Wind200° at 03 kt
W.Decomp.*RWY 20: 3.0 kt HW 0.1 kt RCW
W.Rank200° ranks 8
Current wind is below 200° avg. (7.9)
Visibility9999 m
Phenomena:N/A
Clouds:N/A
Expected CloudBase > 1,200 ft AGL from Temp-Dew spread
CeilingNone
Temp23°C (ISA +8)
Dew Point20°C (83% RH)
QNH1019 hPa
Density Alt1,158 ft
Elevation98 ft
Report Wrong Elevation
Raw Report
METAR LEJR 192200Z AUTO 20003KT 9999 NCD 23/20 Q1019=

Extra information for LEJR:More info

Metar Taf Metar & Taf Last 4 Metars F.Rules Stats Wind Profile Meteogram Temp Stats Airport Information Weather charts Add Link Nearby VenuesMetar ALERT Operation Metar Decoded Social comments